Time;durP1;ratioP1;P1;durP2;ratioP2;P2;SDS_P1;SDS_P2;PMS_P1;PMS_P2;Temp;Humidity;BMP_temperature;BMP_pressure;BME280_temperature;BME280_humidity;BME280_pressure;Samples;Min_cycle;Max_cycle;Signal;HPM_P1;HPM_P2
2024/04/18 00:00:58;;;;;;;;;;;;;;;12.72;41.37;100099.78;5242702;26;95164;-73
2024/04/18 00:03:24;;;;;;;;;;;;;;;12.69;40.72;100095.78;5252187;26;96483;-72
2024/04/18 00:05:50;;;;;;;;;;;;;;;12.65;41.06;100104.75;5229997;26;94670;-72
2024/04/18 00:08:17;;;;;;;;;;;;;;;12.63;41.08;100113.16;5231252;26;95207;-73
2024/04/18 00:10:43;;;;;;;;;;;;;;;12.62;40.90;100102.63;5199596;26;94681;-72
2024/04/18 00:13:09;;;;;;;;;;;;;;;12.57;40.72;100108.88;5227879;26;94256;-72
2024/04/18 00:15:35;;;;;;;;;;;;;;;12.56;41.38;100111.88;5218245;26;94157;-72
2024/04/18 00:18:02;;;;;;;;;;;;;;;12.54;40.80;100117.59;5249068;26;94865;-72
2024/04/18 00:20:28;;;;;;;;;;;;;;;12.51;41.30;100112.75;5227754;26;96264;-73
2024/04/18 00:22:54;;;;;;;;;;;;;;;12.49;41.04;100113.03;5258795;26;94262;-73
2024/04/18 00:25:20;;;;;;;;;;;;;;;12.44;40.96;100118.50;5197586;26;94694;-73
2024/04/18 00:27:46;;;;;;;;;;;;;;;12.42;41.09;100115.31;5195063;26;94575;-72
2024/04/18 00:30:13;;;;;;;;;;;;;;;12.40;41.09;100120.16;5193548;26;94365;-73
2024/04/18 00:32:39;;;;;;;;;;;;;;;12.37;41.30;100120.75;5191677;26;94658;-73
2024/04/18 00:35:06;;;;;;;;;;;;;;;12.34;41.01;100118.63;5228203;26;95029;-72
2024/04/18 00:37:32;;;;;;;;;;;;;;;12.31;41.12;100127.31;5233292;26;94182;-72
2024/04/18 00:39:59;;;;;;;;;;;;;;;12.29;41.18;100126.78;5251528;26;94286;-73
2024/04/18 00:42:25;;;;;;;;;;;;;;;12.27;41.02;100129.78;5249887;26;94800;-72
2024/04/18 00:44:51;;;;;;;;;;;;;;;12.24;41.38;100127.63;5250667;26;94405;-72
2024/04/18 00:47:18;;;;;;;;;;;;;;;12.23;41.33;100130.63;5222316;26;94759;-72
2024/04/18 00:49:44;;;;;;;;;;;;;;;12.20;40.94;100129.31;5221435;26;94632;-72
2024/04/18 00:52:10;;;;;;;;;;;;;;;12.17;41.35;100123.66;5260289;26;96706;-73
2024/04/18 00:54:37;;;;;;;;;;;;;;;12.15;41.20;100129.38;5253501;26;94327;-73
2024/04/18 00:57:03;;;;;;;;;;;;;;;12.13;41.12;100136.13;5224011;26;94652;-73
2024/04/18 00:59:29;;;;;;;;;;;;;;;12.09;41.42;100127.78;5199637;26;94917;-72
2024/04/18 01:01:55;;;;;;;;;;;;;;;12.08;41.07;100138.91;5248837;26;93925;-73
2024/04/18 01:04:21;;;;;;;;;;;;;;;12.06;41.09;100138.38;5249519;26;94292;-72
2024/04/18 01:06:48;;;;;;;;;;;;;;;12.02;40.80;100140.81;5229048;26;94292;-72
2024/04/18 01:09:15;;;;;;;;;;;;;;;11.99;40.77;100139.50;5227445;26;94982;-73
2024/04/18 01:11:41;;;;;;;;;;;;;;;11.97;41.01;100146.28;5217365;26;94544;-72
2024/04/18 01:14:08;;;;;;;;;;;;;;;11.95;40.89;100149.28;5222432;26;95325;-72
2024/04/18 01:16:34;;;;;;;;;;;;;;;11.92;40.75;100147.13;5194204;26;94593;-72
2024/04/18 01:19:01;;;;;;;;;;;;;;;11.90;41.00;100149.31;5214756;26;96576;-73
2024/04/18 01:21:27;;;;;;;;;;;;;;;11.88;41.22;100148.78;5228748;26;96200;-72
2024/04/18 01:23:54;;;;;;;;;;;;;;;11.87;40.83;100149.06;5247904;26;95539;-72
2024/04/18 01:26:20;;;;;;;;;;;;;;;11.83;41.10;100151.53;5227970;26;94887;-72
2024/04/18 01:28:46;;;;;;;;;;;;;;;11.83;41.30;100156.09;5222263;26;94812;-72
2024/04/18 01:31:12;;;;;;;;;;;;;;;11.80;40.80;100146.69;5262686;26;94772;-73
2024/04/18 01:33:38;;;;;;;;;;;;;;;11.77;41.44;100150.72;5202835;26;94509;-72
2024/04/18 01:36:04;;;;;;;;;;;;;;;11.76;40.86;100153.72;5217537;26;95463;-73
2024/04/18 01:38:31;;;;;;;;;;;;;;;11.73;41.02;100157.78;5229092;26;95087;-72
2024/04/18 01:40:57;;;;;;;;;;;;;;;11.70;41.07;100152.16;5254570;26;94657;-73
2024/04/18 01:43:23;;;;;;;;;;;;;;;11.68;41.39;100155.13;5231142;26;95543;-73
2024/04/18 01:45:50;;;;;;;;;;;;;;;11.66;40.87;100151.91;5226650;26;94968;-73
2024/04/18 01:48:16;;;;;;;;;;;;;;;11.65;40.82;100152.19;5214022;26;95772;-72
2024/04/18 01:50:42;;;;;;;;;;;;;;;11.63;40.84;100157.06;5253643;26;94552;-73
2024/04/18 01:53:08;;;;;;;;;;;;;;;11.61;40.83;100160.03;5199629;26;95400;-72
2024/04/18 01:55:34;;;;;;;;;;;;;;;11.60;41.10;100166.53;5252818;26;100099;-72
2024/04/18 01:58:00;;;;;;;;;;;;;;;11.57;41.49;100161.69;5222195;26;94373;-72
2024/04/18 02:00:26;;;;;;;;;;;;;;;11.57;41.36;100171.69;5233251;26;94090;-72
2024/04/18 02:02:53;;;;;;;;;;;;;;;11.55;41.37;100170.09;5261141;26;96356;-72
2024/04/18 02:05:20;;;;;;;;;;;;;;;11.53;41.30;100180.34;5225891;26;96467;-72
2024/04/18 02:07:46;;;;;;;;;;;;;;;11.53;41.31;100187.63;5230949;26;94713;-72
2024/04/18 02:10:13;;;;;;;;;;;;;;;11.51;40.93;100185.22;5232452;26;94933;-72
2024/04/18 02:12:39;;;;;;;;;;;;;;;11.51;40.78;100195.19;5260441;26;94402;-73
2024/04/18 02:15:05;;;;;;;;;;;;;;;11.49;41.37;100187.38;5221279;26;95322;-72
2024/04/18 02:17:31;;;;;;;;;;;;;;;11.47;41.17;100194.16;5204046;26;94897;-72
2024/04/18 02:19:58;;;;;;;;;;;;;;;11.46;40.86;100189.84;5256559;26;94379;-72
2024/04/18 02:22:25;;;;;;;;;;;;;;;11.44;41.35;100197.44;5231954;26;94265;-72
2024/04/18 02:25:04;;;;;;;;;;;;;;;11.42;41.42;100197.69;5224167;26;94153;-72
2024/04/18 02:27:30;;;;;;;;;;;;;;;11.40;41.08;100201.75;5230537;26;95359;-71
2024/04/18 02:29:57;;;;;;;;;;;;;;;11.38;41.06;100202.03;5195986;26;96088;-73
2024/04/18 02:32:23;;;;;;;;;;;;;;;11.36;41.33;100196.13;5205682;26;94453;-72
2024/04/18 02:34:49;;;;;;;;;;;;;;;11.33;41.29;100203.97;5252376;26;97578;-72
2024/04/18 02:37:15;;;;;;;;;;;;;;;11.31;41.01;100198.81;5195108;26;100190;-72
2024/04/18 02:39:41;;;;;;;;;;;;;;;11.29;40.97;100201.00;5232415;26;94200;-72
2024/04/18 02:42:07;;;;;;;;;;;;;;;11.26;41.39;100196.97;5225752;26;95356;-72
2024/04/18 02:44:33;;;;;;;;;;;;;;;11.25;41.47;100210.75;5193339;26;94484;-72
2024/04/18 02:46:59;;;;;;;;;;;;;;;11.22;40.86;100206.69;5248299;26;94968;-72
2024/04/18 02:49:26;;;;;;;;;;;;;;;11.21;41.13;100209.69;5224108;26;96482;-72
2024/04/18 02:51:52;;;;;;;;;;;;;;;11.18;40.88;100212.94;5226463;26;94666;-72
2024/04/18 02:54:18;;;;;;;;;;;;;;;11.16;41.08;100213.22;5258547;26;95751;-72
2024/04/18 02:56:44;;;;;;;;;;;;;;;11.13;41.31;100211.06;5232260;26;94869;-72
2024/04/18 02:59:11;;;;;;;;;;;;;;;11.12;41.40;100214.03;5253121;26;98178;-72
2024/04/18 03:01:37;;;;;;;;;;;;;;;11.10;40.88;100210.81;5190124;26;94287;-72
2024/04/18 03:04:03;;;;;;;;;;;;;;;11.07;41.40;100218.34;5229622;26;94707;-72
2024/04/18 03:06:29;;;;;;;;;;;;;;;11.05;41.05;100223.25;5227262;26;94538;-72
2024/04/18 03:08:56;;;;;;;;;;;;;;;11.02;41.30;100223.78;5257135;26;96963;-71
2024/04/18 03:11:22;;;;;;;;;;;;;;;11.00;41.25;100220.56;5230118;26;94546;-71
2024/04/18 03:13:48;;;;;;;;;;;;;;;10.98;41.02;100230.00;5260441;26;94201;-71
2024/04/18 03:16:15;;;;;;;;;;;;;;;10.95;40.92;100231.34;5233377;26;94842;-72
2024/04/18 03:18:44;;;;;;;;;;;;;;;10.94;41.27;100232.44;5225090;26;97003;-72
2024/04/18 03:21:10;;;;;;;;;;;;;;;10.92;41.05;100231.09;5221790;26;94649;-72
2024/04/18 03:23:37;;;;;;;;;;;;;;;10.88;41.36;100233.53;5260886;26;94500;-72
2024/04/18 03:26:04;;;;;;;;;;;;;;;10.87;40.91;100234.63;5230511;26;94951;-72
2024/04/18 03:28:30;;;;;;;;;;;;;;;10.86;41.41;100243.00;5231200;26;94478;-71
2024/04/18 03:30:56;;;;;;;;;;;;;;;10.84;41.03;100231.66;5195323;26;94694;-71
2024/04/18 03:33:22;;;;;;;;;;;;;;;10.82;41.15;100234.66;5222798;26;95041;-72
2024/04/18 03:35:48;;;;;;;;;;;;;;;10.80;41.34;100244.88;5251689;26;94316;-71
2024/04/18 03:38:15;;;;;;;;;;;;;;;10.78;41.30;100238.97;5254877;26;93970;-72
2024/04/18 03:40:41;;;;;;;;;;;;;;;10.76;41.06;100247.31;5254539;26;94407;-72
2024/04/18 03:43:08;;;;;;;;;;;;;;;10.74;41.49;100244.09;5198204;26;94289;-73
2024/04/18 03:45:34;;;;;;;;;;;;;;;10.73;41.33;100257.88;5233829;26;94821;-72
2024/04/18 03:48:01;;;;;;;;;;;;;;;10.71;41.08;100244.63;5144220;26;95693;-72
2024/04/18 03:50:27;;;;;;;;;;;;;;;10.69;41.49;100246.81;5207557;26;95558;-72
2024/04/18 03:52:53;;;;;;;;;;;;;;;10.67;41.18;100251.66;5207095;26;95860;-72
2024/04/18 03:55:19;;;;;;;;;;;;;;;10.67;41.29;100261.66;5230201;26;124097;-72
2024/04/18 03:57:45;;;;;;;;;;;;;;;10.66;41.23;100260.03;5232753;26;103554;-72
2024/04/18 04:00:11;;;;;;;;;;;;;;;10.66;41.06;100254.66;5258849;26;96390;-73
2024/04/18 04:02:38;;;;;;;;;;;;;;;10.66;40.97;100255.44;5232930;26;96046;-72
2024/04/18 04:05:04;;;;;;;;;;;;;;;10.68;41.05;100268.63;5251879;26;94579;-72
2024/04/18 04:07:30;;;;;;;;;;;;;;;10.68;41.04;100274.84;5231845;26;96312;-72
2024/04/18 04:09:56;;;;;;;;;;;;;;;10.71;41.18;100282.38;5223669;26;118193;-72
2024/04/18 04:12:22;;;;;;;;;;;;;;;10.72;41.17;100281.28;5227146;26;94822;-72
2024/04/18 04:14:48;;;;;;;;;;;;;;;10.75;41.37;100282.66;5188100;26;95277;-72
2024/04/18 04:17:14;;;;;;;;;;;;;;;10.75;40.91;100288.84;5226053;26;94329;-72
2024/04/18 04:19:40;;;;;;;;;;;;;;;10.77;41.48;100294.00;5227952;26;122850;-72
2024/04/18 04:22:06;;;;;;;;;;;;;;;10.79;40.97;100289.13;5228404;26;94690;-71
2024/04/18 04:24:32;;;;;;;;;;;;;;;10.81;41.24;100295.84;5224756;26;94416;-72
2024/04/18 04:26:58;;;;;;;;;;;;;;;10.83;41.14;100300.97;5247544;26;94355;-71
2024/04/18 04:29:25;;;;;;;;;;;;;;;10.85;41.21;100304.22;5199596;26;94703;-72
2024/04/18 04:31:51;;;;;;;;;;;;;;;10.87;41.16;100306.63;5258329;26;95490;-72
2024/04/18 04:34:17;;;;;;;;;;;;;;;10.89;40.92;100304.47;5219371;26;124596;-72
2024/04/18 04:36:43;;;;;;;;;;;;;;;10.92;40.82;100309.31;5240049;26;115700;-72
2024/04/18 04:39:09;;;;;;;;;;;;;;;10.93;41.29;100316.34;5241780;26;94887;-72
2024/04/18 04:41:35;;;;;;;;;;;;;;;10.96;41.15;100311.19;5228893;26;95012;-72
2024/04/18 04:44:01;;;;;;;;;;;;;;;11.00;41.03;100317.66;5252624;26;94925;-72
2024/04/18 04:46:27;;;;;;;;;;;;;;;11.04;41.05;100320.59;5246984;26;113223;-72
2024/04/18 04:48:55;;;;;;;;;;;;;;;11.08;40.72;100324.38;5241698;26;96612;-72
2024/04/18 04:51:21;;;;;;;;;;;;;;;11.13;41.08;100327.06;5225813;26;95715;-72
2024/04/18 04:53:47;;;;;;;;;;;;;;;11.21;40.86;100333.78;5220650;26;109556;-73
2024/04/18 04:56:13;;;;;;;;;;;;;;;11.27;40.77;100340.78;5196143;26;125200;-72
2024/04/18 04:58:39;;;;;;;;;;;;;;;11.35;40.51;100347.50;5187445;26;121197;-73
2024/04/18 05:01:05;;;;;;;;;;;;;;;11.44;41.03;100343.97;5217104;26;115567;-72
2024/04/18 05:03:31;;;;;;;;;;;;;;;11.59;40.68;100350.38;5252594;26;94658;-73
2024/04/18 05:05:57;;;;;;;;;;;;;;;11.67;40.86;100350.63;5216834;26;97387;-72
2024/04/18 05:08:23;;;;;;;;;;;;;;;11.77;40.81;100344.34;5225447;26;94595;-72
2024/04/18 05:10:49;;;;;;;;;;;;;;;11.86;40.33;100358.13;5270984;26;94554;-71
2024/04/18 05:13:16;;;;;;;;;;;;;;;11.92;40.33;100348.91;5213707;26;123710;-72
2024/04/18 05:15:42;;;;;;;;;;;;;;;12.00;40.52;100349.13;5241158;26;95045;-72
2024/04/18 05:18:11;;;;;;;;;;;;;;;12.08;40.90;100358.53;5227075;26;95120;-72
2024/04/18 05:20:40;;;;;;;;;;;;;;;12.14;40.72;100359.28;5227829;26;96071;-72
2024/04/18 05:23:07;;;;;;;;;;;;;;;12.20;40.85;100358.19;5240601;26;94675;-72
2024/04/18 05:25:33;;;;;;;;;;;;;;;12.25;40.40;100358.94;5211640;26;94635;-72
2024/04/18 05:28:13;;;;;;;;;;;;;;;12.34;40.78;100361.88;5239883;26;94734;-72
2024/04/18 05:33:26;;;;;;;;;;;;;;;12.48;40.31;100380.97;5249233;26;94735;-72
2024/04/18 05:35:52;;;;;;;;;;;;;;;12.53;40.51;100373.59;5193989;26;95745;-71
2024/04/18 05:38:18;;;;;;;;;;;;;;;12.58;40.85;100370.09;5219684;26;95012;-72
2024/04/18 05:40:45;;;;;;;;;;;;;;;12.64;40.82;100379.75;5228192;26;101384;-72
2024/04/18 05:43:12;;;;;;;;;;;;;;;12.75;40.54;100388.59;5195963;26;96274;-72
2024/04/18 05:45:38;;;;;;;;;;;;;;;12.83;40.23;100385.28;5247517;26;94810;-72
2024/04/18 05:48:04;;;;;;;;;;;;;;;12.92;40.68;100390.88;5223382;26;98464;-72
2024/04/18 05:50:30;;;;;;;;;;;;;;;12.95;40.45;100384.91;5224743;26;94970;-72
2024/04/18 05:52:56;;;;;;;;;;;;;;;13.12;40.10;100385.25;5192053;26;96172;-72
2024/04/18 05:55:22;;;;;;;;;;;;;;;13.24;40.66;100396.56;5226935;26;111990;-72
2024/04/18 05:57:48;;;;;;;;;;;;;;;13.35;40.47;100389.13;5270782;26;94804;-72
2024/04/18 06:00:16;;;;;;;;;;;;;;;13.45;40.35;100393.63;5247763;26;94621;-72
2024/04/18 06:02:42;;;;;;;;;;;;;;;13.53;40.23;100397.59;5251167;26;95907;-72
2024/04/18 06:05:07;;;;;;;;;;;;;;;13.71;40.17;100396.84;5246710;26;125032;-72
2024/04/18 06:07:33;;;;;;;;;;;;;;;13.95;40.01;100402.22;5226009;26;94107;-72
2024/04/18 06:09:59;;;;;;;;;;;;;;;14.22;39.78;100401.59;5272648;26;112917;-72
2024/04/18 06:12:25;;;;;;;;;;;;;;;14.30;39.95;100411.75;5224041;26;95788;-72
2024/04/18 06:14:51;;;;;;;;;;;;;;;14.37;39.92;100408.69;5229420;26;95936;-72
2024/04/18 06:17:17;;;;;;;;;;;;;;;14.44;39.98;100411.84;5229598;26;94630;-72
2024/04/18 06:19:47;;;;;;;;;;;;;;;14.79;39.64;100418.66;5247708;26;94393;-72
2024/04/18 06:22:13;;;;;;;;;;;;;;;14.77;39.83;100422.75;5277052;26;94827;-72
2024/04/18 06:24:41;;;;;;;;;;;;;;;14.74;39.78;100424.19;5272115;26;95119;-72
2024/04/18 06:27:07;;;;;;;;;;;;;;;14.65;40.23;100432.16;5245292;26;100954;-72
2024/04/18 06:29:33;;;;;;;;;;;;;;;14.65;40.17;100439.50;5192980;26;95417;-72
2024/04/18 06:31:59;;;;;;;;;;;;;;;14.75;39.92;100433.13;5244678;26;95288;-72
2024/04/18 06:34:25;;;;;;;;;;;;;;;14.84;40.00;100432.13;5219328;26;125291;-72
2024/04/18 06:36:52;;;;;;;;;;;;;;;14.90;40.06;100439.09;5244869;26;94087;-72
2024/04/18 06:39:18;;;;;;;;;;;;;;;15.22;40.01;100442.91;5226463;26;94773;-72
2024/04/18 06:41:44;;;;;;;;;;;;;;;15.80;39.03;100442.38;5215258;26;98245;-72
2024/04/18 06:44:10;;;;;;;;;;;;;;;16.15;38.96;100440.84;5229634;26;125287;-73
2024/04/18 06:46:38;;;;;;;;;;;;;;;16.76;39.03;100440.56;5228368;26;96961;-72
2024/04/18 06:49:04;;;;;;;;;;;;;;;17.10;38.82;100440.00;5253441;26;94473;-72
2024/04/18 06:51:30;;;;;;;;;;;;;;;17.07;39.26;100446.06;5188519;26;94948;-72
2024/04/18 06:53:56;;;;;;;;;;;;;;;18.13;38.65;100442.34;5225668;26;122889;-73
2024/04/18 06:56:22;;;;;;;;;;;;;;;18.28;38.52;100445.75;5264571;26;121953;-73
2024/04/18 06:58:48;;;;;;;;;;;;;;;17.75;39.02;100449.47;5217029;26;118482;-72
2024/04/18 07:01:14;;;;;;;;;;;;;;;17.42;39.74;100455.25;5191738;26;121184;-72
2024/04/18 07:03:40;;;;;;;;;;;;;;;17.12;39.35;100457.63;5245762;26;95082;-72
2024/04/18 07:06:06;;;;;;;;;;;;;;;17.53;39.75;100459.31;5197694;26;95771;-72
2024/04/18 07:08:34;;;;;;;;;;;;;;;17.70;39.60;100461.28;5244202;26;94870;-72
2024/04/18 07:11:01;;;;;;;;;;;;;;;18.24;38.99;100452.97;5249344;26;94818;-72
2024/04/18 07:13:28;;;;;;;;;;;;;;;18.70;38.56;100457.00;5220113;26;96761;-73
2024/04/18 07:15:54;;;;;;;;;;;;;;;19.16;38.63;100459.06;5191311;26;95842;-73
2024/04/18 07:18:20;;;;;;;;;;;;;;;19.72;37.91;100456.31;5248558;26;94431;-73
2024/04/18 07:20:46;;;;;;;;;;;;;;;20.38;38.12;100463.97;5254962;26;96350;-73
2024/04/18 07:23:12;;;;;;;;;;;;;;;20.95;37.43;100458.72;5219566;26;110471;-73
2024/04/18 07:25:38;;;;;;;;;;;;;;;21.42;38.25;100472.13;5244059;26;113480;-72
2024/04/18 07:28:04;;;;;;;;;;;;;;;21.29;38.67;100470.44;5270811;26;96541;-73
2024/04/18 07:30:31;;;;;;;;;;;;;;;21.29;38.83;100476.72;5197336;26;95224;-72
2024/04/18 07:32:57;;;;;;;;;;;;;;;21.48;38.01;100483.66;5244535;26;94315;-73
2024/04/18 07:35:23;;;;;;;;;;;;;;;21.04;38.96;100492.28;5194488;26;99620;-73
2024/04/18 07:37:51;;;;;;;;;;;;;;;20.92;38.53;100494.19;5249725;26;94840;-73
2024/04/18 07:40:21;;;;;;;;;;;;;;;20.77;38.31;100501.88;5265838;26;95182;-72
2024/04/18 07:42:50;;;;;;;;;;;;;;;20.81;38.53;100488.31;5191532;26;95042;-73
2024/04/18 07:45:17;;;;;;;;;;;;;;;20.95;39.38;100493.53;5244711;26;95448;-73
2024/04/18 07:47:44;;;;;;;;;;;;;;;21.03;39.30;100496.19;5275698;26;94790;-73
2024/04/18 07:50:10;;;;;;;;;;;;;;;21.93;37.85;100491.00;5193758;26;95743;-73
2024/04/18 07:52:36;;;;;;;;;;;;;;;21.57;39.13;100498.03;5241617;26;94443;-73
2024/04/18 07:55:02;;;;;;;;;;;;;;;21.26;39.21;100499.34;5247187;26;113501;-73
2024/04/18 07:57:28;;;;;;;;;;;;;;;21.20;39.06;100510.84;5224884;26;94733;-73
2024/04/18 07:59:54;;;;;;;;;;;;;;;22.68;37.77;100501.56;5242426;26;110512;-72
2024/04/18 08:02:20;;;;;;;;;;;;;;;23.43;37.32;100498.97;5195231;26;110322;-73
2024/04/18 08:04:46;;;;;;;;;;;;;;;23.81;37.02;100505.03;5197620;26;98107;-73
2024/04/18 08:07:12;;;;;;;;;;;;;;;23.63;37.55;100513.63;5242780;26;94413;-73
2024/04/18 08:09:38;;;;;;;;;;;;;;;23.04;38.54;100519.91;5247785;26;95241;-73
2024/04/18 08:12:05;;;;;;;;;;;;;;;22.68;38.81;100518.06;5241710;26;94252;-73
2024/04/18 08:14:31;;;;;;;;;;;;;;;22.32;38.63;100529.88;5244235;26;101501;-73
2024/04/18 08:16:57;;;;;;;;;;;;;;;21.95;39.56;100525.19;5225985;26;113808;-73
2024/04/18 08:19:23;;;;;;;;;;;;;;;21.70;38.84;100529.06;5217333;26;113838;-73
2024/04/18 08:21:49;;;;;;;;;;;;;;;21.74;38.94;100525.28;5217727;26;124408;-73
2024/04/18 08:24:26;;;;;;;;;;;;;;;21.43;40.05;100525.00;5250406;26;94878;-73
2024/04/18 08:26:53;;;;;;;;;;;;;;;21.24;38.98;100530.97;5229401;26;96786;-73
2024/04/18 08:29:22;;;;;;;;;;;;;;;21.01;39.72;100519.56;5227171;26;96808;-73
2024/04/18 08:31:49;;;;;;;;;;;;;;;22.89;37.70;100515.13;5245975;26;94308;-73
2024/04/18 08:34:15;;;;;;;;;;;;;;;24.76;37.00;100518.63;5244252;26;95165;-74
2024/04/18 08:36:41;;;;;;;;;;;;;;;26.47;35.12;100516.16;5190422;26;96614;-74
2024/04/18 08:39:08;;;;;;;;;;;;;;;26.98;36.05;100517.59;5251762;26;123320;-74
2024/04/18 08:41:34;;;;;;;;;;;;;;;28.44;35.34;100518.94;5244361;26;94567;-74
2024/04/18 08:44:03;;;;;;;;;;;;;;;27.56;36.66;100531.69;5210139;26;123766;-73
2024/04/18 08:46:36;;;;;;;;;;;;;;;29.00;35.62;100528.69;5253708;26;94814;-75
2024/04/18 08:49:02;;;;;;;;;;;;;;;29.74;35.73;100534.81;5243836;26;97695;-74
2024/04/18 08:51:29;;;;;;;;;;;;;;;29.54;36.17;100535.19;5234793;26;94885;-74
2024/04/18 08:53:55;;;;;;;;;;;;;;;28.21;37.14;100535.78;5241815;26;95531;-73
2024/04/18 08:56:24;;;;;;;;;;;;;;;28.63;36.96;100529.72;5224422;26;94336;-74
2024/04/18 08:58:50;;;;;;;;;;;;;;;30.59;35.27;100528.38;5218864;26;95146;-73
2024/04/18 09:01:16;;;;;;;;;;;;;;;31.50;35.23;100527.56;5249247;26;124598;-73
2024/04/18 09:03:42;;;;;;;;;;;;;;;32.75;34.41;100532.00;5229196;26;97274;-75
2024/04/18 09:06:09;;;;;;;;;;;;;;;33.78;34.24;100528.97;5251485;26;94973;-73
2024/04/18 09:08:39;;;;;;;;;;;;;;;34.88;33.80;100532.50;5226707;26;94712;-76
2024/04/18 09:11:07;;;;;;;;;;;;;;;35.88;33.63;100533.03;5214298;26;117500;-73
2024/04/18 09:13:34;;;;;;;;;;;;;;;36.82;33.07;100528.47;5242384;26;123083;-77
2024/04/18 09:16:00;;;;;;;;;;;;;;;37.60;32.79;100530.91;5214630;26;95006;-75
2024/04/18 09:18:33;;;;;;;;;;;;;;;37.52;33.39;100527.53;5244713;26;96102;-75
2024/04/18 09:20:59;;;;;;;;;;;;;;;38.11;33.51;100519.53;5247212;26;96094;-76
2024/04/18 09:23:25;;;;;;;;;;;;;;;38.92;33.14;100515.00;5246721;26;100263;-74
2024/04/18 09:25:54;;;;;;;;;;;;;;;40.13;32.18;100520.53;5212323;26;94289;-74
2024/04/18 09:28:20;;;;;;;;;;;;;;;38.73;34.08;100513.28;5215872;26;95997;-75
2024/04/18 09:30:48;;;;;;;;;;;;;;;37.34;35.61;100513.28;5184884;26;94603;-73
2024/04/18 09:33:15;;;;;;;;;;;;;;;36.24;36.11;100497.66;5226242;26;94966;-72
2024/04/18 09:35:41;;;;;;;;;;;;;;;35.21;36.43;100515.78;5242255;26;95672;-72
2024/04/18 09:38:07;;;;;;;;;;;;;;;34.28;36.74;100506.53;5242709;26;126091;-72
2024/04/18 09:40:33;;;;;;;;;;;;;;;33.92;37.14;100509.94;5225279;26;118318;-72
2024/04/18 09:43:04;;;;;;;;;;;;;;;33.27;37.68;100509.38;5223102;26;94868;-74
2024/04/18 09:45:40;;;;;;;;;;;;;;;32.55;37.69;100512.31;5218491;26;94252;-72
2024/04/18 09:48:06;;;;;;;;;;;;;;;31.72;38.20;100509.50;5219498;26;96554;-73
2024/04/18 09:50:32;;;;;;;;;;;;;;;30.98;38.07;100510.78;5190468;26;118933;-74
2024/04/18 09:52:58;;;;;;;;;;;;;;;30.24;39.20;100512.59;5242078;26;125627;-75
2024/04/18 09:55:24;;;;;;;;;;;;;;;29.62;38.77;100513.78;5193268;26;94761;-73
2024/04/18 09:57:51;;;;;;;;;;;;;;;29.09;39.17;100506.94;5192032;26;125334;-73
2024/04/18 10:00:18;;;;;;;;;;;;;;;28.66;39.39;100514.31;5248642;26;100919;-75
2024/04/18 10:02:47;;;;;;;;;;;;;;;28.39;39.20;100516.53;5188641;26;94123;-74
2024/04/18 10:05:13;;;;;;;;;;;;;;;28.30;39.04;100514.09;5242139;26;94367;-74
2024/04/18 10:07:40;;;;;;;;;;;;;;;28.49;38.48;100515.81;5201334;26;102790;-75
2024/04/18 10:10:07;;;;;;;;;;;;;;;28.34;38.49;100514.91;5220883;26;95056;-74
2024/04/18 10:12:34;;;;;;;;;;;;;;;28.03;38.67;100515.47;5228347;26;94971;-73
2024/04/18 10:15:00;;;;;;;;;;;;;;;27.49;39.18;100522.50;5201281;26;95798;-74
2024/04/18 10:17:30;;;;;;;;;;;;;;;26.88;39.73;100519.03;5190124;26;100837;-73
2024/04/18 10:20:00;;;;;;;;;;;;;;;26.28;39.59;100527.28;5219167;26;94790;-74
2024/04/18 10:22:28;;;;;;;;;;;;;;;25.72;40.77;100528.75;5218602;26;94689;-73
2024/04/18 10:24:53;;;;;;;;;;;;;;;25.23;39.41;100534.97;5248417;26;94121;-74
2024/04/18 10:27:20;;;;;;;;;;;;;;;24.83;39.79;100538.06;5198364;26;94476;-75
2024/04/18 10:29:57;;;;;;;;;;;;;;;24.54;39.72;100539.41;5191030;26;111864;-74
2024/04/18 10:32:24;;;;;;;;;;;;;;;24.35;40.53;100534.63;5222899;26;94244;-74
2024/04/18 10:34:52;;;;;;;;;;;;;;;24.34;39.95;100531.06;5272499;26;94503;-75
2024/04/18 10:37:21;;;;;;;;;;;;;;;24.27;40.17;100536.41;5255018;26;94684;-75
2024/04/18 10:39:48;;;;;;;;;;;;;;;24.09;39.94;100532.44;5219979;26;94280;-73
2024/04/18 10:42:19;;;;;;;;;;;;;;;23.91;40.11;100540.28;5226480;26;96201;-74
2024/04/18 10:44:49;;;;;;;;;;;;;;;23.74;39.80;100539.47;5252477;26;94680;-73
2024/04/18 10:47:19;;;;;;;;;;;;;;;23.69;39.77;100534.22;5249899;26;99638;-73
2024/04/18 10:49:46;;;;;;;;;;;;;;;23.64;39.41;100539.16;5247331;26;95122;-73
2024/04/18 10:52:17;;;;;;;;;;;;;;;23.58;39.37;100546.06;5228824;26;95916;-74
2024/04/18 10:54:44;;;;;;;;;;;;;;;23.50;39.46;100545.91;5202565;26;95248;-74
2024/04/18 10:57:11;;;;;;;;;;;;;;;23.48;39.77;100542.69;5246672;26;95375;-73
2024/04/18 10:59:43;;;;;;;;;;;;;;;23.52;39.37;100542.78;5251953;26;95070;-73
2024/04/18 11:02:12;;;;;;;;;;;;;;;23.64;39.15;100542.72;5273962;26;94618;-73
2024/04/18 11:04:38;;;;;;;;;;;;;;;23.88;39.20;100533.53;5222313;26;94757;-73
2024/04/18 11:07:05;;;;;;;;;;;;;;;24.33;38.59;100542.47;5227783;26;94677;-73
2024/04/18 11:09:33;;;;;;;;;;;;;;;24.52;37.98;100541.72;5199191;26;96010;-73
2024/04/18 11:12:01;;;;;;;;;;;;;;;24.75;38.55;100545.38;5241578;26;95963;-74
2024/04/18 11:14:28;;;;;;;;;;;;;;;26.01;37.90;100546.59;5253646;26;96080;-74
2024/04/18 11:17:00;;;;;;;;;;;;;;;27.59;36.05;100550.28;5232522;26;95928;-75
2024/04/18 11:19:28;;;;;;;;;;;;;;;28.16;36.08;100552.75;5199299;26;94536;-75
2024/04/18 11:22:00;;;;;;;;;;;;;;;27.45;37.03;100555.69;5229317;26;94400;-74
2024/04/18 11:24:27;;;;;;;;;;;;;;;29.07;36.30;100550.94;5274233;26;94921;-75
2024/04/18 11:26:54;;;;;;;;;;;;;;;29.71;35.44;100546.72;5245606;26;96275;-75
2024/04/18 11:29:28;;;;;;;;;;;;;;;29.70;35.83;100551.47;5195415;26;95145;-75
2024/04/18 11:32:07;;;;;;;;;;;;;;;28.62;37.12;100552.31;5257778;26;94447;-73
2024/04/18 11:34:38;;;;;;;;;;;;;;;27.85;37.73;100554.88;5247026;26;94808;-75
2024/04/18 11:37:07;;;;;;;;;;;;;;;27.24;38.28;100559.03;5188027;26;95080;-73
2024/04/18 11:39:35;;;;;;;;;;;;;;;26.64;39.16;100551.50;5229288;26;94690;-74
2024/04/18 11:42:02;;;;;;;;;;;;;;;26.12;39.26;100561.38;5254141;26;95298;-73
2024/04/18 11:44:30;;;;;;;;;;;;;;;25.64;38.56;100554.63;5229530;26;95679;-73
2024/04/18 11:46:56;;;;;;;;;;;;;;;25.19;39.51;100561.66;5194996;26;97730;-74
2024/04/18 11:49:22;;;;;;;;;;;;;;;24.80;39.46;100560.81;5230048;26;94711;-75
2024/04/18 11:51:49;;;;;;;;;;;;;;;24.46;39.01;100563.25;5228590;26;94423;-74
2024/04/18 11:54:15;;;;;;;;;;;;;;;24.18;39.43;100560.59;5246626;26;94965;-74
2024/04/18 11:56:41;;;;;;;;;;;;;;;23.98;39.10;100562.47;5227398;26;96375;-74
2024/04/18 11:59:08;;;;;;;;;;;;;;;23.86;39.55;100559.81;5221269;26;95079;-73
2024/04/18 12:01:35;;;;;;;;;;;;;;;23.82;39.41;100562.47;5189352;26;94793;-73
2024/04/18 12:04:01;;;;;;;;;;;;;;;23.87;39.10;100559.44;5272194;26;98152;-73
2024/04/18 12:06:28;;;;;;;;;;;;;;;24.14;39.10;100557.75;5219578;26;94592;-74
2024/04/18 12:08:55;;;;;;;;;;;;;;;25.06;38.33;100549.16;5255443;26;94859;-75
2024/04/18 12:11:21;;;;;;;;;;;;;;;25.02;37.69;100553.81;5229741;26;97360;-73
2024/04/18 12:13:47;;;;;;;;;;;;;;;25.22;37.42;100545.19;5202765;26;96417;-74
2024/04/18 12:16:14;;;;;;;;;;;;;;;25.76;37.72;100553.66;5229842;26;94960;-74
2024/04/18 12:18:40;;;;;;;;;;;;;;;26.12;37.02;100553.09;5222713;26;94911;-74
2024/04/18 12:21:09;;;;;;;;;;;;;;;26.14;37.09;100548.00;5230550;26;95123;-74
2024/04/18 12:23:42;;;;;;;;;;;;;;;26.07;37.77;100545.13;5229470;26;94806;-73
2024/04/18 12:26:10;;;;;;;;;;;;;;;26.54;36.96;100540.34;5201891;26;94303;-73
2024/04/18 12:28:36;;;;;;;;;;;;;;;26.62;37.67;100548.34;5231757;26;94707;-74
2024/04/18 12:31:02;;;;;;;;;;;;;;;26.75;37.76;100546.13;5217829;26;94739;-73
2024/04/18 12:33:29;;;;;;;;;;;;;;;26.74;38.09;100543.75;5230488;26;94580;-75
2024/04/18 12:35:55;;;;;;;;;;;;;;;26.78;37.38;100550.91;5227626;26;94411;-74